createdAt,value
2022-08-29T00:01:28.747Z,18.23
2022-08-29T00:03:58.138Z,17.90
2022-08-29T00:06:26.096Z,19.13
2022-08-29T00:08:53.398Z,17.63
2022-08-29T00:11:21.137Z,17.52
2022-08-29T00:13:48.975Z,17.13
2022-08-29T00:16:16.645Z,15.90
2022-08-29T00:18:44.434Z,15.68
2022-08-29T00:21:11.755Z,15.50
2022-08-29T00:23:40.551Z,15.85
2022-08-29T00:26:08.154Z,16.67
2022-08-29T00:28:35.737Z,15.05
2022-08-29T00:31:03.812Z,14.52
2022-08-29T00:33:31.441Z,15.20
2022-08-29T00:35:59.059Z,15.27
2022-08-29T00:38:27.824Z,14.55
2022-08-29T00:40:58.021Z,15.25
2022-08-29T00:43:33.637Z,15.37
2022-08-29T00:46:09.700Z,14.10
2022-08-29T00:48:39.984Z,13.45
2022-08-29T00:51:15.199Z,15.15
2022-08-29T00:53:46.542Z,14.18
2022-08-29T00:56:16.872Z,14.23
2022-08-29T00:59:23.266Z,14.57
2022-08-29T01:01:53.467Z,14.02
2022-08-29T01:04:24.054Z,12.90
2022-08-29T01:06:53.243Z,12.90
2022-08-29T01:09:21.552Z,13.13
2022-08-29T01:12:08.100Z,12.00
2022-08-29T01:14:38.592Z,12.02
2022-08-29T01:17:10.223Z,12.15
2022-08-29T01:19:54.105Z,11.90
2022-08-29T01:22:58.415Z,12.55
2022-08-29T01:25:31.466Z,12.38
2022-08-29T01:28:19.980Z,11.45
2022-08-29T01:31:15.832Z,13.00
2022-08-29T01:34:03.272Z,11.05
2022-08-29T01:36:43.738Z,11.45
2022-08-29T01:41:38.299Z,14.23
2022-08-29T01:44:13.525Z,11.40
2022-08-29T01:46:40.915Z,11.48
2022-08-29T01:49:11.621Z,10.35
2022-08-29T01:51:40.548Z,11.77
2022-08-29T01:54:10.533Z,11.20
2022-08-29T01:56:45.476Z,11.20
2022-08-29T01:59:19.055Z,11.80
2022-08-29T02:02:01.366Z,12.18
2022-08-29T02:04:29.454Z,10.43
2022-08-29T02:06:57.995Z,10.93
2022-08-29T02:09:26.596Z,11.10
2022-08-29T02:11:54.764Z,9.43
2022-08-29T02:14:23.687Z,8.13
2022-08-29T02:16:51.589Z,7.60
2022-08-29T02:19:19.614Z,6.85
2022-08-29T02:21:47.469Z,7.22
2022-08-29T02:24:25.362Z,6.30
2022-08-29T02:26:56.095Z,7.10
2022-08-29T02:29:25.073Z,7.45
2022-08-29T02:31:52.660Z,7.47
2022-08-29T02:34:20.167Z,7.57
2022-08-29T02:36:48.150Z,7.43
2022-08-29T02:39:18.194Z,7.88
2022-08-29T02:41:45.981Z,8.20
2022-08-29T02:44:13.653Z,8.13
2022-08-29T02:46:41.072Z,7.75
2022-08-29T02:49:08.431Z,6.43
2022-08-29T02:51:35.828Z,7.13
2022-08-29T02:54:03.605Z,7.53
2022-08-29T02:56:31.293Z,7.45
2022-08-29T02:58:58.885Z,7.68
2022-08-29T03:01:26.508Z,7.30
2022-08-29T03:03:54.676Z,7.10
2022-08-29T03:06:23.110Z,7.55
2022-08-29T03:08:51.010Z,7.93
2022-08-29T03:11:21.477Z,9.68
2022-08-29T03:13:48.764Z,7.03
2022-08-29T03:16:16.384Z,7.00
2022-08-29T03:18:43.761Z,6.93
2022-08-29T03:21:24.088Z,7.75
2022-08-29T03:23:52.503Z,7.10
2022-08-29T03:26:20.468Z,7.45
2022-08-29T03:28:48.324Z,6.72
2022-08-29T03:31:16.017Z,6.22
2022-08-29T03:33:43.633Z,6.22
2022-08-29T03:36:13.871Z,6.82
2022-08-29T03:38:44.130Z,6.60
2022-08-29T03:41:11.728Z,7.80
2022-08-29T03:43:39.093Z,7.50
2022-08-29T03:46:06.554Z,7.00
2022-08-29T03:48:34.023Z,6.65
2022-08-29T03:51:01.562Z,6.50
2022-08-29T03:53:30.764Z,7.05
2022-08-29T03:55:58.451Z,6.78
2022-08-29T03:58:25.825Z,7.88
2022-08-29T04:00:53.305Z,6.80
2022-08-29T04:03:30.820Z,6.93
2022-08-29T04:06:00.120Z,6.35
2022-08-29T04:08:27.514Z,7.68
2022-08-29T04:10:54.831Z,6.38
2022-08-29T04:13:22.260Z,7.25
2022-08-29T04:15:50.242Z,7.15
2022-08-29T04:18:21.262Z,7.07
2022-08-29T04:20:49.147Z,6.60
2022-08-29T04:23:17.743Z,7.35
2022-08-29T04:25:45.449Z,7.05
2022-08-29T04:28:14.957Z,6.82
2022-08-29T04:30:51.596Z,6.13
2022-08-29T04:33:25.730Z,8.30
2022-08-29T04:35:53.482Z,6.50
2022-08-29T04:38:21.055Z,7.15
2022-08-29T04:40:48.802Z,7.05
2022-08-29T04:43:17.072Z,7.53
2022-08-29T04:45:44.328Z,7.90
2022-08-29T04:48:11.686Z,7.22
2022-08-29T04:50:39.293Z,6.88
2022-08-29T04:53:06.550Z,6.78
2022-08-29T04:55:33.880Z,7.57
2022-08-29T04:58:01.680Z,7.13
2022-08-29T05:00:31.467Z,6.95
2022-08-29T05:02:58.829Z,7.25
2022-08-29T05:05:27.459Z,7.75
2022-08-29T05:07:55.183Z,7.63
2022-08-29T05:10:23.107Z,7.57
2022-08-29T05:12:50.580Z,7.55
2022-08-29T05:15:18.777Z,6.78
2022-08-29T05:17:46.080Z,6.38
2022-08-29T05:20:14.025Z,6.75
2022-08-29T05:22:42.392Z,5.40
2022-08-29T05:25:17.912Z,6.00
2022-08-29T05:27:46.765Z,6.80
2022-08-29T05:30:29.223Z,6.47
2022-08-29T05:33:02.592Z,6.40
2022-08-29T05:35:29.986Z,6.68
2022-08-29T05:37:57.334Z,6.82
2022-08-29T05:40:25.122Z,6.18
2022-08-29T05:42:52.447Z,6.20
2022-08-29T05:45:19.840Z,6.65
2022-08-29T05:47:47.164Z,6.38
2022-08-29T05:50:17.069Z,6.90
2022-08-29T05:52:45.127Z,7.82
2022-08-29T05:55:13.154Z,7.63
2022-08-29T05:57:40.517Z,6.88
2022-08-29T06:00:09.903Z,7.40
2022-08-29T06:02:40.318Z,6.40
2022-08-29T06:05:08.323Z,6.15
2022-08-29T06:07:37.844Z,6.78
2022-08-29T06:10:08.449Z,6.80
2022-08-29T06:12:36.783Z,7.45
2022-08-29T06:15:04.660Z,7.43
2022-08-29T06:17:32.044Z,7.57
2022-08-29T06:19:59.270Z,7.50
2022-08-29T06:22:26.946Z,8.82
2022-08-29T06:24:57.617Z,7.28
2022-08-29T06:27:25.783Z,8.57
2022-08-29T06:29:53.187Z,8.02
2022-08-29T06:32:20.493Z,9.68
2022-08-29T06:34:47.754Z,9.82
2022-08-29T06:37:15.389Z,8.98
2022-08-29T06:39:42.818Z,9.35
2022-08-29T06:42:10.451Z,10.02
2022-08-29T06:44:42.484Z,11.60
2022-08-29T06:47:11.615Z,12.25
2022-08-29T06:49:38.873Z,10.55
2022-08-29T06:52:06.279Z,10.27
2022-08-29T06:54:33.626Z,10.70
2022-08-29T06:57:01.078Z,10.65
2022-08-29T06:59:28.469Z,11.85
2022-08-29T07:01:55.808Z,11.13
2022-08-29T07:04:26.414Z,11.07
2022-08-29T07:06:54.116Z,13.02
2022-08-29T07:09:21.825Z,11.80
2022-08-29T07:11:49.335Z,13.20
2022-08-29T07:14:16.856Z,13.77
2022-08-29T07:16:44.085Z,13.68
2022-08-29T07:19:11.797Z,15.15
2022-08-29T07:21:39.475Z,15.63
2022-08-29T07:24:07.855Z,16.73
2022-08-29T07:26:42.205Z,16.80
2022-08-29T07:29:16.823Z,18.25
2022-08-29T07:31:44.265Z,18.58
2022-08-29T07:34:12.011Z,16.48
2022-08-29T07:36:40.325Z,16.60
2022-08-29T07:39:13.629Z,15.30
2022-08-29T07:41:43.814Z,14.63
2022-08-29T07:44:13.005Z,13.88
2022-08-29T07:46:40.903Z,11.98
2022-08-29T07:49:08.416Z,13.23
2022-08-29T07:51:36.200Z,14.20
2022-08-29T07:54:04.501Z,15.05
2022-08-29T07:56:38.551Z,13.75
2022-08-29T07:59:07.325Z,14.88
2022-08-29T08:01:35.774Z,14.63
2022-08-29T08:04:03.792Z,15.10
2022-08-29T08:06:31.411Z,16.00
2022-08-29T08:09:01.760Z,15.07
2022-08-29T08:11:29.232Z,12.50
2022-08-29T08:13:57.734Z,11.55
2022-08-29T08:16:28.375Z,10.02
2022-08-29T08:18:56.894Z,9.65
2022-08-29T08:21:26.331Z,10.63
2022-08-29T08:23:54.662Z,10.47
2022-08-29T08:26:22.810Z,9.75
2022-08-29T08:28:50.920Z,10.13
2022-08-29T08:31:18.913Z,9.95
2022-08-29T08:33:47.362Z,10.50
2022-08-29T08:36:29.934Z,10.68
2022-08-29T08:39:00.013Z,10.43
2022-08-29T08:41:49.544Z,11.02
2022-08-29T08:44:22.740Z,11.82
2022-08-29T08:46:58.326Z,10.35
2022-08-29T08:49:44.837Z,11.20
2022-08-29T08:52:25.552Z,12.60
2022-08-29T08:55:01.845Z,11.70
2022-08-29T08:57:50.074Z,11.95
2022-08-29T09:00:17.476Z,11.98
2022-08-29T09:03:25.865Z,11.93
2022-08-29T09:06:21.065Z,11.93
2022-08-29T09:09:25.014Z,11.50
2022-08-29T09:12:21.986Z,11.82
2022-08-29T09:15:07.709Z,9.82
2022-08-29T09:18:00.910Z,12.15
2022-08-29T09:20:33.207Z,11.07
2022-08-29T09:23:25.920Z,11.68
2022-08-29T09:25:53.239Z,10.90
2022-08-29T09:28:21.356Z,10.98
2022-08-29T09:31:14.917Z,11.30
2022-08-29T09:33:53.231Z,10.88
2022-08-29T09:36:53.206Z,12.43
2022-08-29T09:39:32.544Z,9.90
2022-08-29T09:42:13.647Z,10.98
2022-08-29T09:44:51.299Z,10.13
2022-08-29T09:47:32.932Z,10.35
2022-08-29T09:50:27.235Z,10.98
2022-08-29T09:53:01.518Z,10.75
2022-08-29T09:55:45.822Z,11.15
2022-08-29T09:58:13.844Z,10.80
2022-08-29T10:00:58.852Z,10.75
2022-08-29T10:03:29.232Z,10.90
2022-08-29T10:06:24.190Z,12.20
2022-08-29T10:09:24.105Z,10.23
2022-08-29T10:12:03.831Z,10.90
2022-08-29T10:14:38.409Z,10.82
2022-08-29T10:17:40.070Z,10.63
2022-08-29T10:20:11.711Z,9.82
2022-08-29T10:22:58.953Z,8.50
2022-08-29T10:25:40.488Z,10.00
2022-08-29T10:28:20.456Z,8.98
2022-08-29T10:30:57.353Z,10.30
2022-08-29T10:33:55.520Z,9.45
2022-08-29T10:36:33.581Z,8.90
2022-08-29T10:39:50.190Z,8.82
2022-08-29T10:42:25.566Z,9.87
2022-08-29T10:45:23.369Z,8.90
2022-08-29T10:48:11.767Z,9.82
2022-08-29T10:51:22.222Z,8.90
2022-08-29T10:54:20.151Z,9.85
2022-08-29T10:56:49.366Z,9.13
2022-08-29T10:59:27.172Z,9.25
2022-08-29T11:02:27.186Z,7.80
2022-08-29T11:07:48.950Z,8.30
2022-08-29T11:10:29.581Z,9.48
2022-08-29T11:13:08.316Z,9.00
2022-08-29T11:15:48.431Z,8.07
2022-08-29T11:18:38.383Z,9.15
2022-08-29T11:21:31.009Z,8.27
2022-08-29T11:23:58.599Z,8.07
2022-08-29T11:26:48.465Z,7.97
2022-08-29T11:29:31.504Z,6.95
2022-08-29T11:32:28.149Z,6.90
2022-08-29T11:35:24.921Z,5.60
2022-08-29T11:38:24.669Z,5.97
2022-08-29T11:41:35.670Z,7.20
2022-08-29T11:44:35.478Z,6.80
2022-08-29T11:47:40.732Z,6.80
2022-08-29T11:50:17.674Z,7.00
2022-08-29T11:53:20.957Z,6.50
2022-08-29T11:56:13.180Z,6.30
2022-08-29T11:58:43.437Z,6.07
2022-08-29T12:01:36.173Z,6.28
2022-08-29T12:04:07.996Z,5.43
2022-08-29T12:06:38.204Z,5.57
2022-08-29T12:12:04.077Z,5.32
2022-08-29T12:14:38.077Z,6.18
2022-08-29T12:17:28.975Z,5.43
2022-08-29T12:20:07.423Z,4.88
2022-08-29T12:22:52.662Z,5.20
2022-08-29T12:25:43.399Z,4.82
2022-08-29T12:28:21.003Z,4.28
2022-08-29T12:31:10.099Z,3.45
2022-08-29T12:34:05.718Z,3.73
2022-08-29T12:36:59.031Z,5.00
2022-08-29T12:40:05.578Z,4.80
2022-08-29T12:43:04.706Z,4.85
2022-08-29T12:45:36.117Z,4.97
2022-08-29T12:48:13.117Z,4.95
2022-08-29T12:50:48.282Z,5.45
2022-08-29T12:53:33.473Z,4.72
2022-08-29T12:56:20.941Z,4.35
2022-08-29T12:58:59.449Z,4.55
2022-08-29T13:01:31.003Z,4.13
2022-08-29T13:04:13.040Z,4.50
2022-08-29T13:06:59.136Z,5.22
2022-08-29T13:09:43.433Z,5.35
2022-08-29T13:12:21.827Z,5.00
2022-08-29T13:15:06.855Z,4.78
2022-08-29T13:17:37.778Z,5.03
2022-08-29T13:20:40.350Z,4.20
2022-08-29T13:23:23.646Z,5.25
2022-08-29T13:26:02.163Z,5.07
2022-08-29T13:28:48.237Z,4.22
2022-08-29T13:31:15.577Z,6.25
2022-08-29T13:33:46.051Z,4.78
2022-08-29T13:36:59.504Z,4.75
2022-08-29T13:39:46.967Z,3.92
2022-08-29T13:42:25.922Z,4.32
2022-08-29T13:45:23.952Z,4.18
2022-08-29T13:48:18.523Z,4.28
2022-08-29T13:53:18.296Z,4.30
2022-08-29T13:55:46.067Z,3.47
2022-08-29T13:58:15.168Z,3.85
2022-08-29T14:00:43.838Z,4.13
2022-08-29T14:03:12.443Z,3.97
2022-08-29T14:05:40.250Z,3.00
2022-08-29T14:08:07.714Z,3.45
2022-08-29T14:10:35.464Z,3.30
2022-08-29T14:13:03.494Z,3.40
2022-08-29T14:15:31.634Z,3.20
2022-08-29T14:17:59.553Z,3.50
2022-08-29T14:20:26.975Z,3.00
2022-08-29T14:22:54.353Z,3.42
2022-08-29T14:25:21.860Z,3.10
2022-08-29T14:27:49.495Z,3.40
2022-08-29T14:30:22.303Z,2.85
2022-08-29T14:32:49.913Z,2.85
2022-08-29T14:35:26.784Z,3.55
2022-08-29T14:38:01.434Z,2.80
2022-08-29T14:40:30.215Z,3.72
2022-08-29T14:42:59.088Z,2.60
2022-08-29T14:45:29.245Z,2.85
2022-08-29T14:47:57.260Z,3.22
2022-08-29T14:50:25.121Z,2.80
2022-08-29T14:52:53.188Z,2.90
2022-08-29T14:55:21.512Z,2.78
2022-08-29T14:57:49.510Z,3.15
2022-08-29T15:00:25.597Z,2.38
2022-08-29T15:02:53.413Z,2.97
2022-08-29T15:05:21.462Z,3.00
2022-08-29T15:07:49.396Z,2.70
2022-08-29T15:10:20.961Z,2.80
2022-08-29T15:12:48.427Z,2.70
2022-08-29T15:15:16.039Z,3.58
2022-08-29T15:17:43.937Z,2.53
2022-08-29T15:25:29.488Z,3.05
2022-08-29T15:27:56.829Z,2.95
2022-08-29T15:30:25.808Z,3.17
2022-08-29T15:32:53.252Z,4.07
2022-08-29T15:35:20.938Z,3.70
2022-08-29T15:37:48.369Z,3.10
2022-08-29T15:40:16.070Z,3.55
2022-08-29T15:42:43.414Z,3.97
2022-08-29T15:45:11.593Z,3.50
2022-08-29T15:47:40.400Z,3.47
2022-08-29T15:50:15.144Z,2.40
2022-08-29T15:52:42.712Z,2.88
2022-08-29T15:55:11.397Z,2.55
2022-08-29T15:57:50.955Z,3.63
2022-08-29T16:00:30.313Z,2.97
2022-08-29T16:03:03.253Z,3.13
2022-08-29T16:05:32.451Z,2.95
2022-08-29T16:08:00.014Z,3.10
2022-08-29T16:10:27.585Z,2.50
2022-08-29T16:12:54.984Z,3.05
2022-08-29T16:15:22.474Z,2.95
2022-08-29T16:17:49.877Z,2.65
2022-08-29T16:20:17.187Z,2.95
2022-08-29T16:22:44.788Z,3.22
2022-08-29T16:25:13.749Z,3.08
2022-08-29T16:27:41.541Z,3.40
2022-08-29T16:30:10.501Z,3.00
2022-08-29T16:32:39.826Z,2.92
2022-08-29T16:35:08.146Z,3.20
2022-08-29T16:37:35.759Z,3.00
2022-08-29T16:40:05.498Z,3.78
2022-08-29T16:42:34.163Z,2.67
2022-08-29T16:45:01.670Z,3.40
2022-08-29T16:47:29.088Z,3.03
2022-08-29T16:49:56.495Z,3.13
2022-08-29T16:52:23.874Z,3.38
2022-08-29T16:54:52.108Z,3.03
2022-08-29T16:57:21.601Z,3.00
2022-08-29T16:59:49.822Z,3.28
2022-08-29T17:02:17.490Z,3.33
2022-08-29T17:04:46.667Z,3.08
2022-08-29T17:07:14.078Z,3.30
2022-08-29T17:09:41.445Z,3.50
2022-08-29T17:12:09.144Z,3.40
2022-08-29T17:14:37.263Z,3.28
2022-08-29T17:17:05.074Z,3.85
2022-08-29T17:19:34.149Z,3.50
2022-08-29T17:22:01.900Z,3.17
2022-08-29T17:24:29.358Z,3.45
2022-08-29T17:26:57.575Z,3.17
2022-08-29T17:29:25.075Z,3.63
2022-08-29T17:31:52.578Z,3.53
2022-08-29T17:34:20.043Z,3.40
2022-08-29T17:36:47.332Z,3.22
2022-08-29T17:39:14.788Z,3.58
2022-08-29T17:41:43.380Z,4.47
2022-08-29T17:44:13.147Z,3.47
2022-08-29T17:46:40.599Z,3.28
2022-08-29T17:49:10.468Z,3.08
2022-08-29T17:51:39.682Z,3.63
2022-08-29T17:54:12.651Z,4.47
2022-08-29T17:56:52.770Z,3.83
2022-08-29T17:59:21.687Z,2.85
2022-08-29T18:01:49.231Z,2.92
2022-08-29T18:04:17.103Z,3.30
2022-08-29T18:06:45.428Z,3.40
2022-08-29T18:09:13.724Z,2.63
2022-08-29T18:11:45.153Z,2.05
2022-08-29T18:14:13.130Z,2.20
2022-08-29T18:16:40.611Z,2.50
2022-08-29T18:19:08.395Z,2.35
2022-08-29T18:21:36.209Z,3.17
2022-08-29T18:24:06.462Z,2.42
2022-08-29T18:29:02.621Z,2.58
2022-08-29T18:31:30.098Z,2.75
2022-08-29T18:34:00.635Z,2.38
2022-08-29T18:36:30.310Z,2.13
2022-08-29T18:38:57.996Z,2.60
2022-08-29T18:41:25.640Z,2.10
2022-08-29T18:43:53.701Z,3.03
2022-08-29T18:46:21.788Z,2.88
2022-08-29T18:48:49.502Z,2.65
2022-08-29T18:51:17.488Z,3.30
2022-08-29T18:53:47.316Z,2.85
2022-08-29T18:56:14.917Z,2.88
2022-08-29T18:58:44.456Z,3.72
2022-08-29T19:01:33.543Z,3.00
2022-08-29T19:04:02.713Z,3.00
2022-08-29T19:06:30.116Z,2.67
2022-08-29T19:08:58.040Z,3.13
2022-08-29T19:11:28.364Z,2.92
2022-08-29T19:13:55.846Z,2.85
2022-08-29T19:16:24.040Z,2.70
2022-08-29T19:18:52.827Z,2.65
2022-08-29T19:21:20.667Z,3.45
2022-08-29T19:23:52.185Z,2.53
2022-08-29T19:26:28.659Z,3.53
2022-08-29T19:29:05.135Z,4.07
2022-08-29T19:31:32.770Z,3.30
2022-08-29T19:34:00.789Z,2.60
2022-08-29T19:36:28.246Z,3.35
2022-08-29T19:38:56.064Z,2.83
2022-08-29T19:41:25.038Z,2.72
2022-08-29T19:43:53.187Z,3.28
2022-08-29T19:46:23.740Z,2.83
2022-08-29T19:48:52.336Z,3.22
2022-08-29T19:51:24.713Z,3.25
2022-08-29T19:53:57.365Z,3.13
2022-08-29T19:56:26.625Z,2.92
2022-08-29T19:58:54.634Z,2.80
2022-08-29T20:01:22.324Z,3.70
2022-08-29T20:03:49.695Z,3.10
2022-08-29T20:06:17.424Z,4.25
2022-08-29T20:08:50.239Z,3.30
2022-08-29T20:11:23.361Z,2.58
2022-08-29T20:13:53.730Z,3.13
2022-08-29T20:16:25.249Z,2.92
2022-08-29T20:18:53.845Z,4.25
2022-08-29T20:21:23.620Z,2.85
2022-08-29T20:23:57.814Z,3.30
2022-08-29T20:26:31.463Z,2.25
2022-08-29T20:29:01.555Z,3.60
2022-08-29T20:31:29.884Z,3.65
2022-08-29T20:33:57.653Z,3.50
2022-08-29T20:36:44.587Z,2.92
2022-08-29T20:39:15.911Z,3.78
2022-08-29T20:41:57.525Z,3.40
2022-08-29T20:44:33.554Z,4.60
2022-08-29T20:47:01.637Z,3.90
2022-08-29T20:49:29.404Z,3.67
2022-08-29T20:51:56.984Z,3.22
2022-08-29T20:54:25.534Z,4.45
2022-08-29T20:56:53.808Z,3.70
2022-08-29T20:59:24.691Z,3.65
2022-08-29T21:01:55.561Z,3.45
2022-08-29T21:04:42.198Z,3.95
2022-08-29T21:07:13.358Z,3.55
2022-08-29T21:09:44.999Z,4.25
2022-08-29T21:12:14.911Z,3.70
2022-08-29T21:14:43.218Z,4.20
2022-08-29T21:17:13.541Z,4.30
2022-08-29T21:19:42.501Z,4.15
2022-08-29T21:22:12.312Z,4.95
2022-08-29T21:24:41.025Z,4.90
2022-08-29T21:27:08.444Z,4.00
2022-08-29T21:29:35.942Z,4.75
2022-08-29T21:32:03.793Z,5.10
2022-08-29T21:34:31.597Z,4.60
2022-08-29T21:36:59.113Z,3.92
2022-08-29T21:39:28.958Z,4.65
2022-08-29T21:42:00.920Z,4.40
2022-08-29T21:44:30.327Z,5.05
2022-08-29T21:46:58.037Z,4.70
2022-08-29T21:49:27.129Z,4.60
2022-08-29T21:51:54.534Z,5.05
2022-08-29T21:54:22.756Z,4.40
2022-08-29T21:56:50.346Z,4.32
2022-08-29T21:59:19.342Z,5.22
2022-08-29T22:01:48.993Z,4.90
2022-08-29T22:04:28.092Z,5.45
2022-08-29T22:06:58.341Z,4.63
2022-08-29T22:09:28.311Z,4.15
2022-08-29T22:11:56.356Z,5.18
2022-08-29T22:14:44.599Z,4.78
2022-08-29T22:17:11.978Z,5.10
2022-08-29T22:19:39.651Z,4.82
2022-08-29T22:22:08.693Z,4.30
2022-08-29T22:24:37.594Z,4.22
2022-08-29T22:27:05.052Z,4.60
2022-08-29T22:29:33.433Z,4.88
2022-08-29T22:32:00.822Z,4.03
2022-08-29T22:34:28.171Z,5.75
2022-08-29T22:36:56.296Z,4.82
2022-08-29T22:39:23.673Z,5.28
2022-08-29T22:41:51.356Z,4.57
2022-08-29T22:47:06.963Z,4.85
2022-08-29T22:49:34.190Z,4.13
2022-08-29T22:52:02.264Z,4.70
2022-08-29T22:54:35.577Z,5.13
2022-08-29T22:57:10.971Z,4.53
2022-08-29T22:59:40.195Z,4.50
2022-08-29T23:02:09.455Z,5.57
2022-08-29T23:04:38.582Z,6.07
2022-08-29T23:07:07.508Z,5.10
2022-08-29T23:09:35.795Z,5.20
2022-08-29T23:12:08.127Z,5.22
2022-08-29T23:14:37.797Z,4.32
2022-08-29T23:17:08.291Z,4.90
2022-08-29T23:19:37.449Z,5.35
2022-08-29T23:22:10.102Z,5.25
2022-08-29T23:24:39.357Z,5.65
2022-08-29T23:27:08.901Z,4.82
2022-08-29T23:29:41.912Z,5.53
2022-08-29T23:32:09.489Z,5.50
2022-08-29T23:34:36.753Z,6.15
2022-08-29T23:37:04.106Z,7.28
2022-08-29T23:39:31.567Z,5.20
2022-08-29T23:41:59.628Z,4.75
2022-08-29T23:44:27.112Z,4.65
2022-08-29T23:46:58.121Z,4.75
2022-08-29T23:49:25.586Z,4.88
2022-08-29T23:51:53.098Z,5.13
2022-08-29T23:54:20.491Z,5.13
2022-08-29T23:56:47.815Z,5.55
2022-08-29T23:59:35.001Z,4.97
